sensor_id;sensor_type;location;lat;lon;timestamp;temperature;humidity
51815;DHT22;37874;53.158;6.766;2023-11-22T00:00:46;19.80;66.30
51815;DHT22;37874;53.158;6.766;2023-11-22T00:03:11;19.80;66.40
51815;DHT22;37874;53.158;6.766;2023-11-22T00:05:37;19.80;66.40
51815;DHT22;37874;53.158;6.766;2023-11-22T00:08:03;19.80;66.30
51815;DHT22;37874;53.158;6.766;2023-11-22T00:10:29;19.80;66.20
51815;DHT22;37874;53.158;6.766;2023-11-22T00:12:55;19.80;66.30
51815;DHT22;37874;53.158;6.766;2023-11-22T00:15:21;19.80;66.20
51815;DHT22;37874;53.158;6.766;2023-11-22T00:17:47;19.80;66.10
51815;DHT22;37874;53.158;6.766;2023-11-22T00:20:13;19.80;66.10
51815;DHT22;37874;53.158;6.766;2023-11-22T00:22:39;19.80;66.10
51815;DHT22;37874;53.158;6.766;2023-11-22T00:25:06;19.80;66.10
51815;DHT22;37874;53.158;6.766;2023-11-22T00:27:32;19.80;66.00
51815;DHT22;37874;53.158;6.766;2023-11-22T00:29:58;19.90;66.00
51815;DHT22;37874;53.158;6.766;2023-11-22T00:32:24;19.90;66.00
51815;DHT22;37874;53.158;6.766;2023-11-22T00:34:51;19.90;65.90
51815;DHT22;37874;53.158;6.766;2023-11-22T00:37:18;19.90;65.80
51815;DHT22;37874;53.158;6.766;2023-11-22T00:39:43;19.90;65.80
51815;DHT22;37874;53.158;6.766;2023-11-22T00:42:10;19.90;65.70
51815;DHT22;37874;53.158;6.766;2023-11-22T00:44:37;19.90;65.60
51815;DHT22;37874;53.158;6.766;2023-11-22T00:47:03;19.90;65.50
51815;DHT22;37874;53.158;6.766;2023-11-22T00:49:29;19.90;65.60
51815;DHT22;37874;53.158;6.766;2023-11-22T00:51:55;19.90;65.50
51815;DHT22;37874;53.158;6.766;2023-11-22T00:54:21;19.90;65.50
51815;DHT22;37874;53.158;6.766;2023-11-22T00:56:47;19.90;65.40
51815;DHT22;37874;53.158;6.766;2023-11-22T00:59:13;19.90;65.50
51815;DHT22;37874;53.158;6.766;2023-11-22T01:01:42;19.80;65.40
51815;DHT22;37874;53.158;6.766;2023-11-22T01:04:08;19.90;65.50
51815;DHT22;37874;53.158;6.766;2023-11-22T01:06:34;19.80;65.40
51815;DHT22;37874;53.158;6.766;2023-11-22T01:09:00;19.90;65.50
51815;DHT22;37874;53.158;6.766;2023-11-22T01:11:26;19.80;65.40
51815;DHT22;37874;53.158;6.766;2023-11-22T01:13:53;19.80;65.50
51815;DHT22;37874;53.158;6.766;2023-11-22T01:16:19;19.80;65.50
51815;DHT22;37874;53.158;6.766;2023-11-22T01:18:45;19.80;65.50
51815;DHT22;37874;53.158;6.766;2023-11-22T01:21:12;19.80;65.50
51815;DHT22;37874;53.158;6.766;2023-11-22T01:23:38;19.70;65.50
51815;DHT22;37874;53.158;6.766;2023-11-22T01:26:03;19.70;65.60
51815;DHT22;37874;53.158;6.766;2023-11-22T01:28:31;19.70;65.50
51815;DHT22;37874;53.158;6.766;2023-11-22T01:31:00;19.70;65.60
51815;DHT22;37874;53.158;6.766;2023-11-22T01:33:27;19.70;65.60
51815;DHT22;37874;53.158;6.766;2023-11-22T01:35:53;19.60;65.60
51815;DHT22;37874;53.158;6.766;2023-11-22T01:38:19;19.60;65.60
51815;DHT22;37874;53.158;6.766;2023-11-22T01:40:48;19.60;65.60
51815;DHT22;37874;53.158;6.766;2023-11-22T01:43:20;19.70;65.60
51815;DHT22;37874;53.158;6.766;2023-11-22T01:45:54;19.60;65.60
51815;DHT22;37874;53.158;6.766;2023-11-22T01:48:20;19.60;65.60
51815;DHT22;37874;53.158;6.766;2023-11-22T01:50:46;19.60;65.60
51815;DHT22;37874;53.158;6.766;2023-11-22T01:53:16;19.60;65.70
51815;DHT22;37874;53.158;6.766;2023-11-22T01:55:45;19.60;65.70
51815;DHT22;37874;53.158;6.766;2023-11-22T01:58:12;19.50;65.60
51815;DHT22;37874;53.158;6.766;2023-11-22T02:00:49;19.50;65.60
51815;DHT22;37874;53.158;6.766;2023-11-22T02:03:15;19.50;65.70
51815;DHT22;37874;53.158;6.766;2023-11-22T02:05:42;19.50;65.70
51815;DHT22;37874;53.158;6.766;2023-11-22T02:08:12;19.50;65.70
51815;DHT22;37874;53.158;6.766;2023-11-22T02:10:38;19.50;65.70
51815;DHT22;37874;53.158;6.766;2023-11-22T02:13:07;19.50;65.60
51815;DHT22;37874;53.158;6.766;2023-11-22T02:15:34;19.50;65.70
51815;DHT22;37874;53.158;6.766;2023-11-22T02:18:01;19.50;65.60
51815;DHT22;37874;53.158;6.766;2023-11-22T02:20:28;19.40;66.20
51815;DHT22;37874;53.158;6.766;2023-11-22T02:22:54;19.40;65.70
51815;DHT22;37874;53.158;6.766;2023-11-22T02:25:20;19.40;65.60
51815;DHT22;37874;53.158;6.766;2023-11-22T02:27:46;19.40;65.80
51815;DHT22;37874;53.158;6.766;2023-11-22T02:30:12;19.40;65.70
51815;DHT22;37874;53.158;6.766;2023-11-22T02:32:38;19.40;65.70
51815;DHT22;37874;53.158;6.766;2023-11-22T02:35:07;19.40;65.80
51815;DHT22;37874;53.158;6.766;2023-11-22T02:37:34;19.40;65.70
51815;DHT22;37874;53.158;6.766;2023-11-22T02:40:06;19.40;65.70
51815;DHT22;37874;53.158;6.766;2023-11-22T02:42:34;19.40;65.70
51815;DHT22;37874;53.158;6.766;2023-11-22T02:45:00;19.40;65.70
51815;DHT22;37874;53.158;6.766;2023-11-22T02:47:25;19.40;65.70
51815;DHT22;37874;53.158;6.766;2023-11-22T02:49:52;19.40;65.70
51815;DHT22;37874;53.158;6.766;2023-11-22T02:52:18;19.30;65.60
51815;DHT22;37874;53.158;6.766;2023-11-22T02:54:44;19.40;65.70
51815;DHT22;37874;53.158;6.766;2023-11-22T02:57:13;19.30;65.70
51815;DHT22;37874;53.158;6.766;2023-11-22T02:59:45;19.30;65.70
51815;DHT22;37874;53.158;6.766;2023-11-22T03:02:11;19.30;65.70
51815;DHT22;37874;53.158;6.766;2023-11-22T03:04:37;19.30;65.70
51815;DHT22;37874;53.158;6.766;2023-11-22T03:07:04;19.20;65.60
51815;DHT22;37874;53.158;6.766;2023-11-22T03:09:32;19.20;65.60
51815;DHT22;37874;53.158;6.766;2023-11-22T03:11:58;19.20;65.70
51815;DHT22;37874;53.158;6.766;2023-11-22T03:14:24;19.20;65.70
51815;DHT22;37874;53.158;6.766;2023-11-22T03:16:49;19.20;65.60
51815;DHT22;37874;53.158;6.766;2023-11-22T03:19:21;19.20;65.60
51815;DHT22;37874;53.158;6.766;2023-11-22T03:21:56;19.20;65.60
51815;DHT22;37874;53.158;6.766;2023-11-22T03:24:22;19.20;65.70
51815;DHT22;37874;53.158;6.766;2023-11-22T03:26:49;19.20;65.70
51815;DHT22;37874;53.158;6.766;2023-11-22T03:29:15;19.20;65.70
51815;DHT22;37874;53.158;6.766;2023-11-22T03:31:44;19.20;65.80
51815;DHT22;37874;53.158;6.766;2023-11-22T03:34:19;19.10;65.70
51815;DHT22;37874;53.158;6.766;2023-11-22T03:36:45;19.10;65.60
51815;DHT22;37874;53.158;6.766;2023-11-22T03:39:11;19.10;65.70
51815;DHT22;37874;53.158;6.766;2023-11-22T03:41:40;19.10;65.70
51815;DHT22;37874;53.158;6.766;2023-11-22T03:44:06;19.10;65.60
51815;DHT22;37874;53.158;6.766;2023-11-22T03:46:39;19.10;65.70
51815;DHT22;37874;53.158;6.766;2023-11-22T03:49:06;19.10;65.70
51815;DHT22;37874;53.158;6.766;2023-11-22T03:51:36;19.10;65.70
51815;DHT22;37874;53.158;6.766;2023-11-22T03:54:02;19.10;65.70
51815;DHT22;37874;53.158;6.766;2023-11-22T03:56:31;19.10;65.70
51815;DHT22;37874;53.158;6.766;2023-11-22T03:59:00;19.10;65.70
51815;DHT22;37874;53.158;6.766;2023-11-22T04:01:29;19.10;65.70
51815;DHT22;37874;53.158;6.766;2023-11-22T04:03:55;19.00;65.70
51815;DHT22;37874;53.158;6.766;2023-11-22T04:06:21;19.00;65.70
51815;DHT22;37874;53.158;6.766;2023-11-22T04:08:51;19.00;65.70
51815;DHT22;37874;53.158;6.766;2023-11-22T04:11:21;19.00;65.70
51815;DHT22;37874;53.158;6.766;2023-11-22T04:13:47;19.00;65.60
51815;DHT22;37874;53.158;6.766;2023-11-22T04:16:13;19.00;65.60
51815;DHT22;37874;53.158;6.766;2023-11-22T04:18:40;19.00;65.60
51815;DHT22;37874;53.158;6.766;2023-11-22T04:21:10;19.00;65.60
51815;DHT22;37874;53.158;6.766;2023-11-22T04:23:36;19.00;65.50
51815;DHT22;37874;53.158;6.766;2023-11-22T04:26:04;19.00;65.50
51815;DHT22;37874;53.158;6.766;2023-11-22T04:28:33;19.00;65.50
51815;DHT22;37874;53.158;6.766;2023-11-22T04:31:05;19.00;65.50
51815;DHT22;37874;53.158;6.766;2023-11-22T04:33:30;19.00;65.40
51815;DHT22;37874;53.158;6.766;2023-11-22T04:35:56;19.00;65.40
51815;DHT22;37874;53.158;6.766;2023-11-22T04:38:22;19.00;65.50
51815;DHT22;37874;53.158;6.766;2023-11-22T04:40:48;19.00;65.40
51815;DHT22;37874;53.158;6.766;2023-11-22T04:43:14;19.00;65.30
51815;DHT22;37874;53.158;6.766;2023-11-22T04:45:40;19.00;65.40
51815;DHT22;37874;53.158;6.766;2023-11-22T04:48:06;19.00;65.30
51815;DHT22;37874;53.158;6.766;2023-11-22T04:50:32;19.00;65.30
51815;DHT22;37874;53.158;6.766;2023-11-22T04:52:58;19.00;65.30
51815;DHT22;37874;53.158;6.766;2023-11-22T04:55:24;18.90;65.30
51815;DHT22;37874;53.158;6.766;2023-11-22T04:57:50;19.00;65.30
51815;DHT22;37874;53.158;6.766;2023-11-22T05:00:16;19.00;65.20
51815;DHT22;37874;53.158;6.766;2023-11-22T05:02:43;19.00;65.20
51815;DHT22;37874;53.158;6.766;2023-11-22T05:05:09;18.90;65.20
51815;DHT22;37874;53.158;6.766;2023-11-22T05:07:38;18.90;65.10
51815;DHT22;37874;53.158;6.766;2023-11-22T05:10:05;19.00;65.20
51815;DHT22;37874;53.158;6.766;2023-11-22T05:12:31;18.90;65.20
51815;DHT22;37874;53.158;6.766;2023-11-22T05:14:57;18.90;65.10
51815;DHT22;37874;53.158;6.766;2023-11-22T05:17:23;18.90;65.20
51815;DHT22;37874;53.158;6.766;2023-11-22T05:19:49;18.90;65.20
51815;DHT22;37874;53.158;6.766;2023-11-22T05:22:16;18.90;65.20
51815;DHT22;37874;53.158;6.766;2023-11-22T05:24:42;18.90;65.10
51815;DHT22;37874;53.158;6.766;2023-11-22T05:27:17;18.90;65.10
51815;DHT22;37874;53.158;6.766;2023-11-22T05:29:43;18.90;65.10
51815;DHT22;37874;53.158;6.766;2023-11-22T05:32:09;18.90;65.10
51815;DHT22;37874;53.158;6.766;2023-11-22T05:34:35;18.90;65.10
51815;DHT22;37874;53.158;6.766;2023-11-22T05:37:01;18.90;65.10
51815;DHT22;37874;53.158;6.766;2023-11-22T05:39:27;18.90;65.10
51815;DHT22;37874;53.158;6.766;2023-11-22T05:41:53;18.90;65.10
51815;DHT22;37874;53.158;6.766;2023-11-22T05:44:19;18.80;65.00
51815;DHT22;37874;53.158;6.766;2023-11-22T05:46:45;18.90;65.00
51815;DHT22;37874;53.158;6.766;2023-11-22T05:49:11;18.90;65.00
51815;DHT22;37874;53.158;6.766;2023-11-22T05:51:37;18.90;65.00
51815;DHT22;37874;53.158;6.766;2023-11-22T05:54:04;18.90;65.00
51815;DHT22;37874;53.158;6.766;2023-11-22T05:56:30;18.90;65.00
51815;DHT22;37874;53.158;6.766;2023-11-22T05:58:57;18.90;64.90
51815;DHT22;37874;53.158;6.766;2023-11-22T06:01:23;18.90;64.90
51815;DHT22;37874;53.158;6.766;2023-11-22T06:03:49;18.90;65.00
51815;DHT22;37874;53.158;6.766;2023-11-22T06:06:15;18.90;65.00
51815;DHT22;37874;53.158;6.766;2023-11-22T06:08:40;18.90;65.10
51815;DHT22;37874;53.158;6.766;2023-11-22T06:11:06;18.90;65.10
51815;DHT22;37874;53.158;6.766;2023-11-22T06:13:33;18.90;65.20
51815;DHT22;37874;53.158;6.766;2023-11-22T06:15:59;18.90;65.20
51815;DHT22;37874;53.158;6.766;2023-11-22T06:18:25;18.80;65.20
51815;DHT22;37874;53.158;6.766;2023-11-22T06:20:58;18.90;65.30
51815;DHT22;37874;53.158;6.766;2023-11-22T06:23:24;18.90;65.30
51815;DHT22;37874;53.158;6.766;2023-11-22T06:25:50;18.90;65.30
51815;DHT22;37874;53.158;6.766;2023-11-22T06:28:17;18.90;65.30
51815;DHT22;37874;53.158;6.766;2023-11-22T06:30:43;18.90;65.30
51815;DHT22;37874;53.158;6.766;2023-11-22T06:33:09;18.90;65.20
51815;DHT22;37874;53.158;6.766;2023-11-22T06:35:35;18.90;65.20
51815;DHT22;37874;53.158;6.766;2023-11-22T06:38:03;18.90;65.20
51815;DHT22;37874;53.158;6.766;2023-11-22T06:40:29;18.70;65.10
51815;DHT22;37874;53.158;6.766;2023-11-22T06:42:55;18.90;65.10
51815;DHT22;37874;53.158;6.766;2023-11-22T06:45:21;18.90;65.10
51815;DHT22;37874;53.158;6.766;2023-11-22T06:47:48;18.90;65.10
51815;DHT22;37874;53.158;6.766;2023-11-22T06:50:15;18.90;65.10
51815;DHT22;37874;53.158;6.766;2023-11-22T06:52:41;18.90;65.10
51815;DHT22;37874;53.158;6.766;2023-11-22T06:55:08;18.90;65.20
51815;DHT22;37874;53.158;6.766;2023-11-22T06:57:38;18.80;65.10
51815;DHT22;37874;53.158;6.766;2023-11-22T07:00:05;18.90;65.30
51815;DHT22;37874;53.158;6.766;2023-11-22T07:02:32;18.90;65.30
51815;DHT22;37874;53.158;6.766;2023-11-22T07:04:58;18.90;65.20
51815;DHT22;37874;53.158;6.766;2023-11-22T07:07:25;18.90;65.30
51815;DHT22;37874;53.158;6.766;2023-11-22T07:09:51;18.90;65.30
51815;DHT22;37874;53.158;6.766;2023-11-22T07:12:17;18.90;65.40
51815;DHT22;37874;53.158;6.766;2023-11-22T07:14:44;18.90;65.40
51815;DHT22;37874;53.158;6.766;2023-11-22T07:17:10;18.90;65.40
51815;DHT22;37874;53.158;6.766;2023-11-22T07:19:36;18.90;65.40
51815;DHT22;37874;53.158;6.766;2023-11-22T07:22:04;18.90;65.40
51815;DHT22;37874;53.158;6.766;2023-11-22T07:24:42;18.90;65.30
51815;DHT22;37874;53.158;6.766;2023-11-22T07:27:11;19.00;65.30
51815;DHT22;37874;53.158;6.766;2023-11-22T07:29:44;19.00;65.30
51815;DHT22;37874;53.158;6.766;2023-11-22T07:32:13;19.00;65.30
51815;DHT22;37874;53.158;6.766;2023-11-22T07:34:41;18.90;65.20
51815;DHT22;37874;53.158;6.766;2023-11-22T07:37:07;19.00;65.20
51815;DHT22;37874;53.158;6.766;2023-11-22T07:39:34;19.00;65.20
51815;DHT22;37874;53.158;6.766;2023-11-22T07:42:04;19.00;65.30
51815;DHT22;37874;53.158;6.766;2023-11-22T07:44:34;19.00;65.20
51815;DHT22;37874;53.158;6.766;2023-11-22T07:47:02;19.00;65.20
51815;DHT22;37874;53.158;6.766;2023-11-22T07:49:28;19.00;65.10
51815;DHT22;37874;53.158;6.766;2023-11-22T07:51:58;19.00;65.10
51815;DHT22;37874;53.158;6.766;2023-11-22T07:54:23;19.00;65.10
51815;DHT22;37874;53.158;6.766;2023-11-22T07:56:50;19.00;65.10
51815;DHT22;37874;53.158;6.766;2023-11-22T07:59:15;19.00;65.10
51815;DHT22;37874;53.158;6.766;2023-11-22T08:01:45;19.10;65.20
51815;DHT22;37874;53.158;6.766;2023-11-22T08:04:13;19.00;65.10
51815;DHT22;37874;53.158;6.766;2023-11-22T08:06:40;19.10;65.00
51815;DHT22;37874;53.158;6.766;2023-11-22T08:09:06;19.10;65.10
51815;DHT22;37874;53.158;6.766;2023-11-22T08:11:37;19.10;65.10
51815;DHT22;37874;53.158;6.766;2023-11-22T08:14:03;19.10;65.10
51815;DHT22;37874;53.158;6.766;2023-11-22T08:16:29;19.00;64.90
51815;DHT22;37874;53.158;6.766;2023-11-22T08:18:55;19.10;64.90
51815;DHT22;37874;53.158;6.766;2023-11-22T08:24:44;19.10;64.90
51815;DHT22;37874;53.158;6.766;2023-11-22T08:27:48;19.10;64.90
51815;DHT22;37874;53.158;6.766;2023-11-22T08:30:14;19.10;64.90
51815;DHT22;37874;53.158;6.766;2023-11-22T08:40:01;19.10;64.90
51815;DHT22;37874;53.158;6.766;2023-11-22T08:43:05;19.10;67.70
51815;DHT22;37874;53.158;6.766;2023-11-22T08:45:49;19.00;68.60
51815;DHT22;37874;53.158;6.766;2023-11-22T08:48:55;18.90;69.90
51815;DHT22;37874;53.158;6.766;2023-11-22T08:57:48;18.50;74.80
51815;DHT22;37874;53.158;6.766;2023-11-22T09:00:17;18.50;75.60
51815;DHT22;37874;53.158;6.766;2023-11-22T09:22:00;18.10;78.60
51815;DHT22;37874;53.158;6.766;2023-11-22T09:27:51;18.10;78.90
51815;DHT22;37874;53.158;6.766;2023-11-22T09:33:27;18.10;79.40
51815;DHT22;37874;53.158;6.766;2023-11-22T10:01:02;18.20;79.00
51815;DHT22;37874;53.158;6.766;2023-11-22T10:04:06;18.20;79.00
51815;DHT22;37874;53.158;6.766;2023-11-22T10:07:09;18.30;78.80
51815;DHT22;37874;53.158;6.766;2023-11-22T10:22:06;18.30;78.40
51815;DHT22;37874;53.158;6.766;2023-11-22T10:24:34;18.30;78.30
51815;DHT22;37874;53.158;6.766;2023-11-22T10:27:01;18.30;78.30
51815;DHT22;37874;53.158;6.766;2023-11-22T10:29:28;18.40;78.30
51815;DHT22;37874;53.158;6.766;2023-11-22T10:31:54;18.40;78.20
51815;DHT22;37874;53.158;6.766;2023-11-22T10:34:24;18.40;78.10
51815;DHT22;37874;53.158;6.766;2023-11-22T10:36:51;18.40;78.00
51815;DHT22;37874;53.158;6.766;2023-11-22T10:39:21;18.40;78.00
51815;DHT22;37874;53.158;6.766;2023-11-22T10:41:48;18.40;77.70
51815;DHT22;37874;53.158;6.766;2023-11-22T10:44:16;18.40;77.70
51815;DHT22;37874;53.158;6.766;2023-11-22T10:46:44;18.40;77.70
51815;DHT22;37874;53.158;6.766;2023-11-22T10:49:11;18.50;77.60
51815;DHT22;37874;53.158;6.766;2023-11-22T10:51:39;18.50;77.50
51815;DHT22;37874;53.158;6.766;2023-11-22T10:54:07;18.50;77.50
51815;DHT22;37874;53.158;6.766;2023-11-22T10:56:42;18.50;77.30
51815;DHT22;37874;53.158;6.766;2023-11-22T10:59:15;18.50;77.20
51815;DHT22;37874;53.158;6.766;2023-11-22T11:01:47;18.60;77.20
51815;DHT22;37874;53.158;6.766;2023-11-22T11:04:22;18.60;77.00
51815;DHT22;37874;53.158;6.766;2023-11-22T11:06:53;18.70;76.70
51815;DHT22;37874;53.158;6.766;2023-11-22T11:09:22;18.70;76.60
51815;DHT22;37874;53.158;6.766;2023-11-22T11:11:51;18.80;76.50
51815;DHT22;37874;53.158;6.766;2023-11-22T11:14:17;18.80;76.00
51815;DHT22;37874;53.158;6.766;2023-11-22T11:16:43;18.90;75.80
51815;DHT22;37874;53.158;6.766;2023-11-22T11:19:17;19.10;76.10
51815;DHT22;37874;53.158;6.766;2023-11-22T11:21:43;19.20;75.10
51815;DHT22;37874;53.158;6.766;2023-11-22T11:24:09;19.30;74.60
51815;DHT22;37874;53.158;6.766;2023-11-22T11:26:36;19.40;74.10
51815;DHT22;37874;53.158;6.766;2023-11-22T11:29:02;19.60;73.50
51815;DHT22;37874;53.158;6.766;2023-11-22T11:31:38;19.80;72.80
51815;DHT22;37874;53.158;6.766;2023-11-22T11:34:08;19.90;71.90
51815;DHT22;37874;53.158;6.766;2023-11-22T11:36:37;20.10;71.70
51815;DHT22;37874;53.158;6.766;2023-11-22T11:39:07;20.20;71.00
51815;DHT22;37874;53.158;6.766;2023-11-22T11:41:41;20.30;70.50
51815;DHT22;37874;53.158;6.766;2023-11-22T11:44:08;20.30;69.90
51815;DHT22;37874;53.158;6.766;2023-11-22T11:46:36;20.20;69.80
51815;DHT22;37874;53.158;6.766;2023-11-22T11:49:06;20.20;69.90
51815;DHT22;37874;53.158;6.766;2023-11-22T11:51:33;20.10;70.10
51815;DHT22;37874;53.158;6.766;2023-11-22T11:54:00;20.00;70.00
51815;DHT22;37874;53.158;6.766;2023-11-22T11:56:27;20.00;70.30
51815;DHT22;37874;53.158;6.766;2023-11-22T11:58:57;20.00;70.20
51815;DHT22;37874;53.158;6.766;2023-11-22T12:01:27;19.90;70.00
51815;DHT22;37874;53.158;6.766;2023-11-22T12:03:53;19.80;70.00
51815;DHT22;37874;53.158;6.766;2023-11-22T12:06:19;19.80;70.10
51815;DHT22;37874;53.158;6.766;2023-11-22T12:08:45;19.70;70.30
51815;DHT22;37874;53.158;6.766;2023-11-22T12:11:13;19.60;70.40
51815;DHT22;37874;53.158;6.766;2023-11-22T12:13:39;19.50;70.60
51815;DHT22;37874;53.158;6.766;2023-11-22T12:16:09;19.40;70.90
51815;DHT22;37874;53.158;6.766;2023-11-22T12:18:54;19.40;71.20
51815;DHT22;37874;53.158;6.766;2023-11-22T12:21:21;19.30;71.50
51815;DHT22;37874;53.158;6.766;2023-11-22T12:23:47;19.20;71.60
51815;DHT22;37874;53.158;6.766;2023-11-22T12:26:15;19.20;71.70
51815;DHT22;37874;53.158;6.766;2023-11-22T12:28:41;19.10;71.90
51815;DHT22;37874;53.158;6.766;2023-11-22T12:31:11;19.10;72.00
51815;DHT22;37874;53.158;6.766;2023-11-22T12:33:38;19.10;72.20
51815;DHT22;37874;53.158;6.766;2023-11-22T12:36:07;19.00;72.20
51815;DHT22;37874;53.158;6.766;2023-11-22T12:38:43;18.90;72.30
51815;DHT22;37874;53.158;6.766;2023-11-22T12:41:09;18.90;72.40
51815;DHT22;37874;53.158;6.766;2023-11-22T12:43:36;18.90;72.50
51815;DHT22;37874;53.158;6.766;2023-11-22T12:46:08;18.90;72.60
51815;DHT22;37874;53.158;6.766;2023-11-22T12:48:44;18.90;72.70
51815;DHT22;37874;53.158;6.766;2023-11-22T12:51:17;18.80;72.70
51815;DHT22;37874;53.158;6.766;2023-11-22T12:53:46;18.80;72.80
51815;DHT22;37874;53.158;6.766;2023-11-22T12:56:17;18.80;72.80
51815;DHT22;37874;53.158;6.766;2023-11-22T12:58:42;18.80;72.80
51815;DHT22;37874;53.158;6.766;2023-11-22T13:01:09;18.80;72.80
51815;DHT22;37874;53.158;6.766;2023-11-22T13:03:35;18.70;72.70
51815;DHT22;37874;53.158;6.766;2023-11-22T13:06:01;18.80;72.80
51815;DHT22;37874;53.158;6.766;2023-11-22T13:08:27;18.70;72.70
51815;DHT22;37874;53.158;6.766;2023-11-22T13:10:55;18.70;72.60
51815;DHT22;37874;53.158;6.766;2023-11-22T13:13:23;18.70;72.60
51815;DHT22;37874;53.158;6.766;2023-11-22T13:15:50;18.70;72.60
51815;DHT22;37874;53.158;6.766;2023-11-22T13:18:17;18.70;72.60
51815;DHT22;37874;53.158;6.766;2023-11-22T13:20:44;18.70;72.50
51815;DHT22;37874;53.158;6.766;2023-11-22T13:23:10;18.70;72.40
51815;DHT22;37874;53.158;6.766;2023-11-22T13:25:38;18.70;72.20
51815;DHT22;37874;53.158;6.766;2023-11-22T13:28:04;18.80;72.20
51815;DHT22;37874;53.158;6.766;2023-11-22T13:30:31;18.80;72.30
51815;DHT22;37874;53.158;6.766;2023-11-22T13:32:58;18.80;72.20
51815;DHT22;37874;53.158;6.766;2023-11-22T13:35:25;18.80;72.20
51815;DHT22;37874;53.158;6.766;2023-11-22T13:37:57;18.80;72.00
51815;DHT22;37874;53.158;6.766;2023-11-22T13:40:23;18.80;72.00
51815;DHT22;37874;53.158;6.766;2023-11-22T13:42:51;18.80;72.10
51815;DHT22;37874;53.158;6.766;2023-11-22T13:45:20;18.80;71.90
51815;DHT22;37874;53.158;6.766;2023-11-22T13:47:49;18.80;71.90
51815;DHT22;37874;53.158;6.766;2023-11-22T13:50:19;18.80;71.80
51815;DHT22;37874;53.158;6.766;2023-11-22T13:52:54;18.80;71.80
51815;DHT22;37874;53.158;6.766;2023-11-22T13:55:20;18.80;71.80
51815;DHT22;37874;53.158;6.766;2023-11-22T13:57:51;18.80;71.50
51815;DHT22;37874;53.158;6.766;2023-11-22T14:00:18;18.90;71.60
51815;DHT22;37874;53.158;6.766;2023-11-22T14:02:46;18.90;71.50
51815;DHT22;37874;53.158;6.766;2023-11-22T14:05:12;18.80;71.40
51815;DHT22;37874;53.158;6.766;2023-11-22T14:07:38;18.90;71.50
51815;DHT22;37874;53.158;6.766;2023-11-22T14:10:05;18.90;71.40
51815;DHT22;37874;53.158;6.766;2023-11-22T14:12:32;18.90;71.40
51815;DHT22;37874;53.158;6.766;2023-11-22T14:14:58;18.90;71.30
51815;DHT22;37874;53.158;6.766;2023-11-22T14:17:25;18.90;71.30
51815;DHT22;37874;53.158;6.766;2023-11-22T14:19:52;18.90;71.10
51815;DHT22;37874;53.158;6.766;2023-11-22T14:22:19;19.00;71.10
51815;DHT22;37874;53.158;6.766;2023-11-22T14:24:46;19.00;71.00
51815;DHT22;37874;53.158;6.766;2023-11-22T14:27:12;19.00;71.00
51815;DHT22;37874;53.158;6.766;2023-11-22T14:29:39;19.00;70.90
51815;DHT22;37874;53.158;6.766;2023-11-22T14:32:06;19.00;70.90
51815;DHT22;37874;53.158;6.766;2023-11-22T14:34:33;19.00;70.80
51815;DHT22;37874;53.158;6.766;2023-11-22T14:36:59;19.00;70.70
51815;DHT22;37874;53.158;6.766;2023-11-22T14:39:25;19.10;70.70
51815;DHT22;37874;53.158;6.766;2023-11-22T14:41:52;19.00;70.60
51815;DHT22;37874;53.158;6.766;2023-11-22T14:44:19;19.10;70.60
51815;DHT22;37874;53.158;6.766;2023-11-22T14:46:46;19.00;70.40
51815;DHT22;37874;53.158;6.766;2023-11-22T14:49:12;19.00;70.40
51815;DHT22;37874;53.158;6.766;2023-11-22T14:51:40;19.00;70.40
51815;DHT22;37874;53.158;6.766;2023-11-22T14:54:06;19.00;70.30
51815;DHT22;37874;53.158;6.766;2023-11-22T14:56:32;19.00;70.30
51815;DHT22;37874;53.158;6.766;2023-11-22T14:59:00;19.00;70.30
51815;DHT22;37874;53.158;6.766;2023-11-22T15:01:27;19.10;70.30
51815;DHT22;37874;53.158;6.766;2023-11-22T15:03:53;19.00;70.10
51815;DHT22;37874;53.158;6.766;2023-11-22T15:06:22;19.00;70.10
51815;DHT22;37874;53.158;6.766;2023-11-22T15:08:48;19.10;70.10
51815;DHT22;37874;53.158;6.766;2023-11-22T15:11:17;19.10;69.90
51815;DHT22;37874;53.158;6.766;2023-11-22T15:13:46;19.00;69.90
51815;DHT22;37874;53.158;6.766;2023-11-22T15:16:12;19.00;69.80
51815;DHT22;37874;53.158;6.766;2023-11-22T15:18:41;19.10;70.00
51815;DHT22;37874;53.158;6.766;2023-11-22T15:21:07;19.00;69.80
51815;DHT22;37874;53.158;6.766;2023-11-22T15:23:33;19.10;69.90
51815;DHT22;37874;53.158;6.766;2023-11-22T15:25:59;19.10;69.90
51815;DHT22;37874;53.158;6.766;2023-11-22T15:28:26;19.00;69.90
51815;DHT22;37874;53.158;6.766;2023-11-22T15:30:52;19.10;69.90
51815;DHT22;37874;53.158;6.766;2023-11-22T15:33:26;19.10;69.80
51815;DHT22;37874;53.158;6.766;2023-11-22T15:35:52;19.10;69.80
51815;DHT22;37874;53.158;6.766;2023-11-22T15:38:21;19.10;69.70
51815;DHT22;37874;53.158;6.766;2023-11-22T15:40:49;19.10;69.70
51815;DHT22;37874;53.158;6.766;2023-11-22T15:43:15;19.00;69.50
51815;DHT22;37874;53.158;6.766;2023-11-22T15:45:42;19.10;69.50
51815;DHT22;37874;53.158;6.766;2023-11-22T15:48:21;19.10;69.50
51815;DHT22;37874;53.158;6.766;2023-11-22T15:50:51;19.10;69.60
51815;DHT22;37874;53.158;6.766;2023-11-22T15:53:18;19.10;69.30
51815;DHT22;37874;53.158;6.766;2023-11-22T15:55:50;19.10;69.40
51815;DHT22;37874;53.158;6.766;2023-11-22T15:58:25;19.00;69.30
51815;DHT22;37874;53.158;6.766;2023-11-22T16:00:53;19.20;69.40
51815;DHT22;37874;53.158;6.766;2023-11-22T16:03:18;19.00;69.20
51815;DHT22;37874;53.158;6.766;2023-11-22T16:05:45;19.10;69.30
51815;DHT22;37874;53.158;6.766;2023-11-22T16:08:11;19.10;69.20
51815;DHT22;37874;53.158;6.766;2023-11-22T16:10:37;19.00;69.20
51815;DHT22;37874;53.158;6.766;2023-11-22T16:13:03;19.00;69.10
51815;DHT22;37874;53.158;6.766;2023-11-22T16:15:29;19.00;69.20
51815;DHT22;37874;53.158;6.766;2023-11-22T16:17:55;19.00;69.20
51815;DHT22;37874;53.158;6.766;2023-11-22T16:20:22;19.00;69.10
51815;DHT22;37874;53.158;6.766;2023-11-22T16:22:47;19.00;69.30
51815;DHT22;37874;53.158;6.766;2023-11-22T16:25:15;19.00;69.20
51815;DHT22;37874;53.158;6.766;2023-11-22T16:27:51;19.00;69.20
51815;DHT22;37874;53.158;6.766;2023-11-22T16:30:17;19.10;69.10
51815;DHT22;37874;53.158;6.766;2023-11-22T16:32:43;19.10;69.00
51815;DHT22;37874;53.158;6.766;2023-11-22T16:35:09;19.10;69.00
51815;DHT22;37874;53.158;6.766;2023-11-22T16:37:36;19.10;68.90
51815;DHT22;37874;53.158;6.766;2023-11-22T16:40:02;19.10;69.00
51815;DHT22;37874;53.158;6.766;2023-11-22T16:42:37;19.00;69.00
51815;DHT22;37874;53.158;6.766;2023-11-22T16:45:05;19.00;69.00
51815;DHT22;37874;53.158;6.766;2023-11-22T16:47:31;19.10;68.90
51815;DHT22;37874;53.158;6.766;2023-11-22T16:49:58;19.10;68.90
51815;DHT22;37874;53.158;6.766;2023-11-22T16:52:25;19.10;68.90
51815;DHT22;37874;53.158;6.766;2023-11-22T16:54:52;19.00;68.80